sensor_id;sensor_type;location;lat;lon;timestamp;P1;durP1;ratioP1;P2;durP2;ratioP2
14975;SDS011;7584;60.468;25.126;2023-03-14T00:02:07;1.20;;;0.80;;
14975;SDS011;7584;60.468;25.126;2023-03-14T00:04:32;1.60;;;0.80;;
14975;SDS011;7584;60.468;25.126;2023-03-14T00:06:57;0.83;;;0.77;;
14975;SDS011;7584;60.468;25.126;2023-03-14T00:09:23;0.90;;;0.80;;
14975;SDS011;7584;60.468;25.126;2023-03-14T00:11:48;1.00;;;0.80;;
14975;SDS011;7584;60.468;25.126;2023-03-14T00:14:13;0.97;;;0.70;;
14975;SDS011;7584;60.468;25.126;2023-03-14T00:16:40;1.50;;;0.97;;
14975;SDS011;7584;60.468;25.126;2023-03-14T00:19:06;0.67;;;0.67;;
14975;SDS011;7584;60.468;25.126;2023-03-14T00:21:31;2.70;;;0.80;;
14975;SDS011;7584;60.468;25.126;2023-03-14T00:23:56;0.77;;;0.60;;
14975;SDS011;7584;60.468;25.126;2023-03-14T00:26:21;0.67;;;0.50;;
14975;SDS011;7584;60.468;25.126;2023-03-14T00:28:50;0.50;;;0.50;;
14975;SDS011;7584;60.468;25.126;2023-03-14T00:31:16;1.13;;;0.63;;
14975;SDS011;7584;60.468;25.126;2023-03-14T00:33:41;0.60;;;0.60;;
14975;SDS011;7584;60.468;25.126;2023-03-14T00:36:11;0.73;;;0.60;;
14975;SDS011;7584;60.468;25.126;2023-03-14T00:38:38;0.90;;;0.63;;
14975;SDS011;7584;60.468;25.126;2023-03-14T00:41:07;2.30;;;0.70;;
14975;SDS011;7584;60.468;25.126;2023-03-14T00:43:32;0.57;;;0.50;;
14975;SDS011;7584;60.468;25.126;2023-03-14T00:45:58;0.87;;;0.47;;
14975;SDS011;7584;60.468;25.126;2023-03-14T00:48:23;0.83;;;0.60;;
14975;SDS011;7584;60.468;25.126;2023-03-14T00:50:49;1.40;;;0.70;;
14975;SDS011;7584;60.468;25.126;2023-03-14T00:53:14;1.47;;;0.50;;
14975;SDS011;7584;60.468;25.126;2023-03-14T00:55:40;2.03;;;0.63;;
14975;SDS011;7584;60.468;25.126;2023-03-14T00:58:07;0.77;;;0.63;;
14975;SDS011;7584;60.468;25.126;2023-03-14T01:00:32;0.90;;;0.60;;
14975;SDS011;7584;60.468;25.126;2023-03-14T01:02:58;0.90;;;0.53;;
14975;SDS011;7584;60.468;25.126;2023-03-14T01:05:23;1.57;;;0.60;;
14975;SDS011;7584;60.468;25.126;2023-03-14T01:07:49;3.90;;;0.47;;
14975;SDS011;7584;60.468;25.126;2023-03-14T01:10:14;1.27;;;0.60;;
14975;SDS011;7584;60.468;25.126;2023-03-14T01:12:39;1.50;;;0.77;;
14975;SDS011;7584;60.468;25.126;2023-03-14T01:15:05;0.80;;;0.70;;
14975;SDS011;7584;60.468;25.126;2023-03-14T01:17:30;0.90;;;0.73;;
14975;SDS011;7584;60.468;25.126;2023-03-14T01:19:56;1.23;;;0.93;;
14975;SDS011;7584;60.468;25.126;2023-03-14T01:22:21;1.70;;;0.80;;
14975;SDS011;7584;60.468;25.126;2023-03-14T01:24:46;1.93;;;1.00;;
14975;SDS011;7584;60.468;25.126;2023-03-14T01:27:12;1.43;;;0.90;;
14975;SDS011;7584;60.468;25.126;2023-03-14T01:29:37;1.20;;;0.80;;
14975;SDS011;7584;60.468;25.126;2023-03-14T01:32:03;1.90;;;1.00;;
14975;SDS011;7584;60.468;25.126;2023-03-14T01:34:28;2.97;;;0.93;;
14975;SDS011;7584;60.468;25.126;2023-03-14T01:36:53;1.30;;;0.93;;
14975;SDS011;7584;60.468;25.126;2023-03-14T01:39:18;1.50;;;1.00;;
14975;SDS011;7584;60.468;25.126;2023-03-14T01:41:44;1.07;;;0.80;;
14975;SDS011;7584;60.468;25.126;2023-03-14T01:44:10;4.10;;;1.10;;
14975;SDS011;7584;60.468;25.126;2023-03-14T01:46:37;1.67;;;0.70;;
14975;SDS011;7584;60.468;25.126;2023-03-14T01:54:01;1.47;;;0.90;;
14975;SDS011;7584;60.468;25.126;2023-03-14T01:56:27;0.70;;;0.70;;
14975;SDS011;7584;60.468;25.126;2023-03-14T01:58:52;1.20;;;0.80;;
14975;SDS011;7584;60.468;25.126;2023-03-14T02:01:19;2.70;;;0.77;;
14975;SDS011;7584;60.468;25.126;2023-03-14T02:03:53;1.87;;;0.77;;
14975;SDS011;7584;60.468;25.126;2023-03-14T02:06:20;1.43;;;0.80;;
14975;SDS011;7584;60.468;25.126;2023-03-14T02:08:47;1.20;;;0.80;;
14975;SDS011;7584;60.468;25.126;2023-03-14T02:11:14;1.50;;;0.70;;
14975;SDS011;7584;60.468;25.126;2023-03-14T02:13:40;0.97;;;0.87;;
14975;SDS011;7584;60.468;25.126;2023-03-14T02:16:05;0.80;;;0.70;;
14975;SDS011;7584;60.468;25.126;2023-03-14T02:18:30;1.07;;;0.80;;
14975;SDS011;7584;60.468;25.126;2023-03-14T02:20:59;2.77;;;0.83;;
14975;SDS011;7584;60.468;25.126;2023-03-14T02:23:32;2.40;;;1.00;;
14975;SDS011;7584;60.468;25.126;2023-03-14T02:26:03;1.40;;;0.73;;
14975;SDS011;7584;60.468;25.126;2023-03-14T02:28:31;0.90;;;0.70;;
14975;SDS011;7584;60.468;25.126;2023-03-14T02:30:56;0.70;;;0.67;;
14975;SDS011;7584;60.468;25.126;2023-03-14T02:33:21;1.20;;;0.80;;
14975;SDS011;7584;60.468;25.126;2023-03-14T02:40:53;1.10;;;0.90;;
14975;SDS011;7584;60.468;25.126;2023-03-14T02:43:18;2.20;;;0.97;;
14975;SDS011;7584;60.468;25.126;2023-03-14T02:45:47;2.80;;;1.10;;
14975;SDS011;7584;60.468;25.126;2023-03-14T02:48:34;1.10;;;0.67;;
14975;SDS011;7584;60.468;25.126;2023-03-14T02:50:59;0.60;;;0.60;;
14975;SDS011;7584;60.468;25.126;2023-03-14T02:53:25;1.00;;;0.80;;
14975;SDS011;7584;60.468;25.126;2023-03-14T02:55:51;1.30;;;0.90;;
14975;SDS011;7584;60.468;25.126;2023-03-14T02:58:17;1.53;;;1.10;;
14975;SDS011;7584;60.468;25.126;2023-03-14T03:00:43;3.23;;;0.90;;
14975;SDS011;7584;60.468;25.126;2023-03-14T03:03:08;2.50;;;0.87;;
14975;SDS011;7584;60.468;25.126;2023-03-14T03:05:34;1.77;;;0.60;;
14975;SDS011;7584;60.468;25.126;2023-03-14T03:07:59;1.43;;;0.87;;
14975;SDS011;7584;60.468;25.126;2023-03-14T03:10:25;0.87;;;0.70;;
14975;SDS011;7584;60.468;25.126;2023-03-14T03:12:50;1.83;;;0.80;;
14975;SDS011;7584;60.468;25.126;2023-03-14T03:15:16;1.90;;;0.80;;
14975;SDS011;7584;60.468;25.126;2023-03-14T03:17:41;1.10;;;0.80;;
14975;SDS011;7584;60.468;25.126;2023-03-14T03:20:07;2.80;;;1.00;;
14975;SDS011;7584;60.468;25.126;2023-03-14T03:22:34;3.60;;;1.53;;
14975;SDS011;7584;60.468;25.126;2023-03-14T03:24:59;2.93;;;1.37;;
14975;SDS011;7584;60.468;25.126;2023-03-14T03:27:25;3.17;;;1.30;;
14975;SDS011;7584;60.468;25.126;2023-03-14T03:29:50;4.13;;;1.77;;
14975;SDS011;7584;60.468;25.126;2023-03-14T03:32:15;3.50;;;1.80;;
14975;SDS011;7584;60.468;25.126;2023-03-14T03:34:41;1.77;;;1.27;;
14975;SDS011;7584;60.468;25.126;2023-03-14T03:37:06;4.00;;;1.70;;
14975;SDS011;7584;60.468;25.126;2023-03-14T03:39:32;3.80;;;1.93;;
14975;SDS011;7584;60.468;25.126;2023-03-14T03:41:57;4.27;;;1.70;;
14975;SDS011;7584;60.468;25.126;2023-03-14T03:44:22;3.03;;;1.57;;
14975;SDS011;7584;60.468;25.126;2023-03-14T03:46:47;3.87;;;2.03;;
14975;SDS011;7584;60.468;25.126;2023-03-14T03:49:13;3.20;;;1.67;;
14975;SDS011;7584;60.468;25.126;2023-03-14T03:51:39;2.73;;;1.70;;
14975;SDS011;7584;60.468;25.126;2023-03-14T03:54:04;1.50;;;1.13;;
14975;SDS011;7584;60.468;25.126;2023-03-14T03:56:30;1.97;;;1.30;;
14975;SDS011;7584;60.468;25.126;2023-03-14T03:58:56;2.80;;;1.43;;
14975;SDS011;7584;60.468;25.126;2023-03-14T04:01:22;2.47;;;1.20;;
14975;SDS011;7584;60.468;25.126;2023-03-14T04:03:47;4.97;;;1.33;;
14975;SDS011;7584;60.468;25.126;2023-03-14T04:06:13;1.50;;;1.17;;
14975;SDS011;7584;60.468;25.126;2023-03-14T04:08:38;1.87;;;1.27;;
14975;SDS011;7584;60.468;25.126;2023-03-14T04:11:05;1.70;;;1.10;;
14975;SDS011;7584;60.468;25.126;2023-03-14T04:13:30;1.70;;;1.10;;
14975;SDS011;7584;60.468;25.126;2023-03-14T04:15:56;3.00;;;1.17;;
14975;SDS011;7584;60.468;25.126;2023-03-14T04:18:21;1.23;;;1.00;;
14975;SDS011;7584;60.468;25.126;2023-03-14T04:20:50;2.83;;;1.10;;
14975;SDS011;7584;60.468;25.126;2023-03-14T04:23:15;2.50;;;0.90;;
14975;SDS011;7584;60.468;25.126;2023-03-14T04:25:41;2.17;;;1.20;;
14975;SDS011;7584;60.468;25.126;2023-03-14T04:28:06;2.40;;;0.80;;
14975;SDS011;7584;60.468;25.126;2023-03-14T04:30:31;1.17;;;0.80;;
14975;SDS011;7584;60.468;25.126;2023-03-14T04:32:57;3.53;;;1.10;;
14975;SDS011;7584;60.468;25.126;2023-03-14T04:35:22;4.53;;;0.80;;
14975;SDS011;7584;60.468;25.126;2023-03-14T04:37:47;4.67;;;0.90;;
14975;SDS011;7584;60.468;25.126;2023-03-14T04:40:14;2.10;;;0.80;;
14975;SDS011;7584;60.468;25.126;2023-03-14T04:42:39;2.30;;;0.80;;
14975;SDS011;7584;60.468;25.126;2023-03-14T04:45:05;3.80;;;0.87;;
14975;SDS011;7584;60.468;25.126;2023-03-14T04:47:30;2.30;;;0.90;;
14975;SDS011;7584;60.468;25.126;2023-03-14T04:49:56;5.40;;;1.27;;
14975;SDS011;7584;60.468;25.126;2023-03-14T04:52:21;1.00;;;0.60;;
14975;SDS011;7584;60.468;25.126;2023-03-14T04:54:46;1.53;;;0.90;;
14975;SDS011;7584;60.468;25.126;2023-03-14T04:57:11;2.03;;;0.70;;
14975;SDS011;7584;60.468;25.126;2023-03-14T04:59:37;3.30;;;0.87;;
14975;SDS011;7584;60.468;25.126;2023-03-14T05:02:02;0.80;;;0.70;;
14975;SDS011;7584;60.468;25.126;2023-03-14T05:04:27;1.33;;;0.60;;
14975;SDS011;7584;60.468;25.126;2023-03-14T05:06:53;1.20;;;0.70;;
14975;SDS011;7584;60.468;25.126;2023-03-14T05:09:18;2.90;;;0.83;;
14975;SDS011;7584;60.468;25.126;2023-03-14T05:11:43;1.40;;;0.80;;
14975;SDS011;7584;60.468;25.126;2023-03-14T05:14:09;1.90;;;0.93;;
14975;SDS011;7584;60.468;25.126;2023-03-14T05:16:34;4.90;;;0.80;;
14975;SDS011;7584;60.468;25.126;2023-03-14T05:18:59;1.87;;;0.97;;
14975;SDS011;7584;60.468;25.126;2023-03-14T05:21:26;4.60;;;0.80;;
14975;SDS011;7584;60.468;25.126;2023-03-14T05:23:51;3.10;;;0.80;;
14975;SDS011;7584;60.468;25.126;2023-03-14T05:26:17;6.07;;;0.70;;
14975;SDS011;7584;60.468;25.126;2023-03-14T05:28:42;2.33;;;1.10;;
14975;SDS011;7584;60.468;25.126;2023-03-14T05:31:08;5.97;;;1.07;;
14975;SDS011;7584;60.468;25.126;2023-03-14T05:33:33;1.67;;;1.00;;
14975;SDS011;7584;60.468;25.126;2023-03-14T05:35:59;4.07;;;0.97;;
14975;SDS011;7584;60.468;25.126;2023-03-14T05:38:24;1.63;;;0.70;;
14975;SDS011;7584;60.468;25.126;2023-03-14T05:40:49;1.30;;;0.77;;
14975;SDS011;7584;60.468;25.126;2023-03-14T05:43:14;1.13;;;0.70;;
14975;SDS011;7584;60.468;25.126;2023-03-14T05:45:41;2.37;;;0.90;;
14975;SDS011;7584;60.468;25.126;2023-03-14T05:48:06;4.60;;;1.37;;
14975;SDS011;7584;60.468;25.126;2023-03-14T05:50:31;2.80;;;1.20;;
14975;SDS011;7584;60.468;25.126;2023-03-14T05:52:57;5.13;;;1.30;;
14975;SDS011;7584;60.468;25.126;2023-03-14T05:55:22;4.87;;;1.93;;
14975;SDS011;7584;60.468;25.126;2023-03-14T05:57:47;4.50;;;1.43;;
14975;SDS011;7584;60.468;25.126;2023-03-14T06:00:13;7.23;;;2.50;;
14975;SDS011;7584;60.468;25.126;2023-03-14T06:02:38;3.97;;;1.93;;
14975;SDS011;7584;60.468;25.126;2023-03-14T06:05:04;3.53;;;1.30;;
14975;SDS011;7584;60.468;25.126;2023-03-14T06:07:29;8.93;;;2.40;;
14975;SDS011;7584;60.468;25.126;2023-03-14T06:09:54;9.43;;;2.07;;
14975;SDS011;7584;60.468;25.126;2023-03-14T06:12:20;6.87;;;2.30;;
14975;SDS011;7584;60.468;25.126;2023-03-14T06:14:45;4.90;;;1.93;;
14975;SDS011;7584;60.468;25.126;2023-03-14T06:17:10;5.73;;;1.73;;
14975;SDS011;7584;60.468;25.126;2023-03-14T06:19:36;4.20;;;1.53;;
14975;SDS011;7584;60.468;25.126;2023-03-14T06:22:01;8.73;;;1.10;;
14975;SDS011;7584;60.468;25.126;2023-03-14T06:24:26;7.23;;;2.40;;
14975;SDS011;7584;60.468;25.126;2023-03-14T06:26:52;9.77;;;1.90;;
14975;SDS011;7584;60.468;25.126;2023-03-14T06:29:17;5.30;;;1.33;;
14975;SDS011;7584;60.468;25.126;2023-03-14T06:31:42;5.07;;;2.33;;
14975;SDS011;7584;60.468;25.126;2023-03-14T06:34:07;5.07;;;1.63;;
14975;SDS011;7584;60.468;25.126;2023-03-14T06:36:33;11.00;;;1.90;;
14975;SDS011;7584;60.468;25.126;2023-03-14T06:38:58;8.60;;;1.93;;
14975;SDS011;7584;60.468;25.126;2023-03-14T06:41:23;5.97;;;1.50;;
14975;SDS011;7584;60.468;25.126;2023-03-14T06:43:50;6.60;;;2.23;;
14975;SDS011;7584;60.468;25.126;2023-03-14T06:46:16;7.20;;;2.73;;
14975;SDS011;7584;60.468;25.126;2023-03-14T06:48:41;5.10;;;1.80;;
14975;SDS011;7584;60.468;25.126;2023-03-14T06:51:06;9.00;;;2.57;;
14975;SDS011;7584;60.468;25.126;2023-03-14T06:53:32;11.03;;;2.07;;
14975;SDS011;7584;60.468;25.126;2023-03-14T06:55:57;9.73;;;2.27;;
14975;SDS011;7584;60.468;25.126;2023-03-14T06:58:22;5.93;;;2.00;;
14975;SDS011;7584;60.468;25.126;2023-03-14T07:00:48;8.40;;;2.63;;
14975;SDS011;7584;60.468;25.126;2023-03-14T07:03:13;5.33;;;1.53;;
14975;SDS011;7584;60.468;25.126;2023-03-14T07:05:39;10.83;;;2.53;;
14975;SDS011;7584;60.468;25.126;2023-03-14T07:08:05;10.93;;;2.40;;
14975;SDS011;7584;60.468;25.126;2023-03-14T07:10:31;8.73;;;1.90;;
14975;SDS011;7584;60.468;25.126;2023-03-14T07:12:56;6.83;;;1.47;;
14975;SDS011;7584;60.468;25.126;2023-03-14T07:15:21;4.07;;;2.03;;
14975;SDS011;7584;60.468;25.126;2023-03-14T07:17:46;6.20;;;2.27;;
14975;SDS011;7584;60.468;25.126;2023-03-14T07:20:13;9.23;;;2.43;;
14975;SDS011;7584;60.468;25.126;2023-03-14T07:22:38;8.17;;;2.13;;
14975;SDS011;7584;60.468;25.126;2023-03-14T07:25:03;11.00;;;2.17;;
14975;SDS011;7584;60.468;25.126;2023-03-14T07:27:29;2.33;;;1.23;;
14975;SDS011;7584;60.468;25.126;2023-03-14T07:29:54;8.97;;;2.50;;
14975;SDS011;7584;60.468;25.126;2023-03-14T07:32:19;4.80;;;1.57;;
14975;SDS011;7584;60.468;25.126;2023-03-14T07:34:45;6.73;;;2.10;;
14975;SDS011;7584;60.468;25.126;2023-03-14T07:37:10;8.47;;;1.90;;
14975;SDS011;7584;60.468;25.126;2023-03-14T07:39:35;1.50;;;1.10;;
14975;SDS011;7584;60.468;25.126;2023-03-14T07:42:01;6.00;;;2.30;;
14975;SDS011;7584;60.468;25.126;2023-03-14T07:44:26;4.87;;;1.60;;
14975;SDS011;7584;60.468;25.126;2023-03-14T07:46:51;7.57;;;1.73;;
14975;SDS011;7584;60.468;25.126;2023-03-14T07:49:17;7.60;;;2.20;;
14975;SDS011;7584;60.468;25.126;2023-03-14T07:51:42;8.23;;;1.77;;
14975;SDS011;7584;60.468;25.126;2023-03-14T07:54:09;6.03;;;2.23;;
14975;SDS011;7584;60.468;25.126;2023-03-14T07:56:34;6.03;;;2.43;;
14975;SDS011;7584;60.468;25.126;2023-03-14T07:59:00;3.73;;;1.60;;
14975;SDS011;7584;60.468;25.126;2023-03-14T08:01:25;9.23;;;1.93;;
14975;SDS011;7584;60.468;25.126;2023-03-14T08:03:50;10.97;;;2.50;;
14975;SDS011;7584;60.468;25.126;2023-03-14T08:06:15;7.90;;;2.20;;
14975;SDS011;7584;60.468;25.126;2023-03-14T08:08:41;6.23;;;2.00;;
14975;SDS011;7584;60.468;25.126;2023-03-14T08:11:06;11.47;;;2.37;;
14975;SDS011;7584;60.468;25.126;2023-03-14T08:13:35;13.00;;;2.40;;
14975;SDS011;7584;60.468;25.126;2023-03-14T08:16:01;6.20;;;2.13;;
14975;SDS011;7584;60.468;25.126;2023-03-14T08:18:26;4.90;;;2.03;;
14975;SDS011;7584;60.468;25.126;2023-03-14T08:20:51;7.80;;;1.97;;
14975;SDS011;7584;60.468;25.126;2023-03-14T08:23:17;7.37;;;1.90;;
14975;SDS011;7584;60.468;25.126;2023-03-14T08:25:42;7.20;;;2.17;;
14975;SDS011;7584;60.468;25.126;2023-03-14T08:28:08;8.43;;;2.37;;
14975;SDS011;7584;60.468;25.126;2023-03-14T08:30:33;8.07;;;2.20;;
14975;SDS011;7584;60.468;25.126;2023-03-14T08:32:58;13.70;;;3.53;;
14975;SDS011;7584;60.468;25.126;2023-03-14T08:35:24;12.63;;;2.40;;
14975;SDS011;7584;60.468;25.126;2023-03-14T08:37:50;8.43;;;2.13;;
14975;SDS011;7584;60.468;25.126;2023-03-14T08:40:17;14.87;;;2.90;;
14975;SDS011;7584;60.468;25.126;2023-03-14T08:42:42;10.63;;;2.80;;
14975;SDS011;7584;60.468;25.126;2023-03-14T08:45:08;13.43;;;2.57;;
14975;SDS011;7584;60.468;25.126;2023-03-14T08:47:33;13.07;;;2.67;;
14975;SDS011;7584;60.468;25.126;2023-03-14T08:49:59;10.73;;;2.50;;
14975;SDS011;7584;60.468;25.126;2023-03-14T08:52:24;9.23;;;2.37;;
14975;SDS011;7584;60.468;25.126;2023-03-14T08:54:49;13.27;;;3.63;;
14975;SDS011;7584;60.468;25.126;2023-03-14T08:57:14;18.23;;;4.07;;
14975;SDS011;7584;60.468;25.126;2023-03-14T08:59:40;10.97;;;3.63;;
14975;SDS011;7584;60.468;25.126;2023-03-14T09:02:05;11.63;;;2.40;;
14975;SDS011;7584;60.468;25.126;2023-03-14T09:04:31;18.67;;;4.13;;
14975;SDS011;7584;60.468;25.126;2023-03-14T09:06:57;14.43;;;3.17;;
14975;SDS011;7584;60.468;25.126;2023-03-14T09:09:23;8.77;;;2.40;;
14975;SDS011;7584;60.468;25.126;2023-03-14T09:11:48;9.87;;;2.27;;
14975;SDS011;7584;60.468;25.126;2023-03-14T09:14:13;11.97;;;3.20;;
14975;SDS011;7584;60.468;25.126;2023-03-14T09:16:39;9.20;;;2.43;;
14975;SDS011;7584;60.468;25.126;2023-03-14T09:19:04;12.93;;;2.57;;
14975;SDS011;7584;60.468;25.126;2023-03-14T09:21:30;15.20;;;2.47;;
14975;SDS011;7584;60.468;25.126;2023-03-14T09:23:56;10.70;;;3.43;;
14975;SDS011;7584;60.468;25.126;2023-03-14T09:26:21;13.20;;;3.53;;
14975;SDS011;7584;60.468;25.126;2023-03-14T09:28:46;10.50;;;3.10;;
14975;SDS011;7584;60.468;25.126;2023-03-14T09:31:12;12.57;;;3.30;;
14975;SDS011;7584;60.468;25.126;2023-03-14T09:33:37;10.93;;;2.40;;
14975;SDS011;7584;60.468;25.126;2023-03-14T09:36:03;17.00;;;2.67;;
14975;SDS011;7584;60.468;25.126;2023-03-14T09:38:28;15.53;;;3.17;;
14975;SDS011;7584;60.468;25.126;2023-03-14T09:40:54;14.03;;;3.60;;
14975;SDS011;7584;60.468;25.126;2023-03-14T09:43:20;10.13;;;2.50;;
14975;SDS011;7584;60.468;25.126;2023-03-14T09:45:46;12.33;;;2.77;;
14975;SDS011;7584;60.468;25.126;2023-03-14T09:48:32;14.00;;;4.00;;
14975;SDS011;7584;60.468;25.126;2023-03-14T09:50:58;10.83;;;2.80;;
14975;SDS011;7584;60.468;25.126;2023-03-14T09:53:46;13.77;;;3.33;;
14975;SDS011;7584;60.468;25.126;2023-03-14T09:56:17;16.43;;;3.77;;
14975;SDS011;7584;60.468;25.126;2023-03-14T09:58:44;12.93;;;3.40;;
14975;SDS011;7584;60.468;25.126;2023-03-14T10:01:11;12.93;;;3.53;;
14975;SDS011;7584;60.468;25.126;2023-03-14T10:03:38;18.17;;;4.13;;
14975;SDS011;7584;60.468;25.126;2023-03-14T10:06:09;11.73;;;3.30;;
14975;SDS011;7584;60.468;25.126;2023-03-14T10:08:38;14.90;;;3.70;;
14975;SDS011;7584;60.468;25.126;2023-03-14T10:11:03;20.47;;;3.90;;
14975;SDS011;7584;60.468;25.126;2023-03-14T10:13:29;13.77;;;2.93;;
14975;SDS011;7584;60.468;25.126;2023-03-14T10:16:01;17.07;;;3.70;;
14975;SDS011;7584;60.468;25.126;2023-03-14T10:18:28;16.87;;;4.10;;
14975;SDS011;7584;60.468;25.126;2023-03-14T10:23:37;13.00;;;4.23;;
14975;SDS011;7584;60.468;25.126;2023-03-14T10:26:05;20.83;;;3.77;;
14975;SDS011;7584;60.468;25.126;2023-03-14T10:28:37;15.47;;;3.10;;
14975;SDS011;7584;60.468;25.126;2023-03-14T10:31:02;9.73;;;2.93;;
14975;SDS011;7584;60.468;25.126;2023-03-14T10:33:33;14.63;;;2.60;;
14975;SDS011;7584;60.468;25.126;2023-03-14T10:36:03;23.60;;;4.63;;
14975;SDS011;7584;60.468;25.126;2023-03-14T10:38:36;13.53;;;4.10;;
14975;SDS011;7584;60.468;25.126;2023-03-14T10:41:01;18.57;;;3.30;;
14975;SDS011;7584;60.468;25.126;2023-03-14T10:46:09;16.17;;;2.83;;
14975;SDS011;7584;60.468;25.126;2023-03-14T10:48:36;12.13;;;2.90;;
14975;SDS011;7584;60.468;25.126;2023-03-14T10:53:29;9.60;;;2.70;;
14975;SDS011;7584;60.468;25.126;2023-03-14T10:55:58;7.00;;;2.50;;
14975;SDS011;7584;60.468;25.126;2023-03-14T10:58:27;9.97;;;2.27;;
14975;SDS011;7584;60.468;25.126;2023-03-14T11:00:57;8.60;;;3.00;;
14975;SDS011;7584;60.468;25.126;2023-03-14T11:03:25;10.83;;;2.20;;
14975;SDS011;7584;60.468;25.126;2023-03-14T11:08:33;9.30;;;2.77;;
14975;SDS011;7584;60.468;25.126;2023-03-14T11:11:06;11.27;;;2.40;;
14975;SDS011;7584;60.468;25.126;2023-03-14T11:26:33;11.27;;;2.67;;
14975;SDS011;7584;60.468;25.126;2023-03-14T11:29:20;17.00;;;3.63;;
14975;SDS011;7584;60.468;25.126;2023-03-14T11:31:46;11.93;;;3.27;;
14975;SDS011;7584;60.468;25.126;2023-03-14T11:34:15;8.47;;;2.70;;
14975;SDS011;7584;60.468;25.126;2023-03-14T11:36:41;10.63;;;2.73;;
14975;SDS011;7584;60.468;25.126;2023-03-14T11:39:11;7.93;;;2.17;;
14975;SDS011;7584;60.468;25.126;2023-03-14T11:41:53;8.30;;;2.13;;
14975;SDS011;7584;60.468;25.126;2023-03-14T11:44:22;9.97;;;2.47;;
14975;SDS011;7584;60.468;25.126;2023-03-14T11:49:30;18.20;;;3.50;;
14975;SDS011;7584;60.468;25.126;2023-03-14T11:51:59;11.57;;;3.13;;
14975;SDS011;7584;60.468;25.126;2023-03-14T11:57:04;17.07;;;2.97;;
14975;SDS011;7584;60.468;25.126;2023-03-14T11:59:39;12.80;;;2.97;;
14975;SDS011;7584;60.468;25.126;2023-03-14T12:02:17;12.23;;;4.20;;
14975;SDS011;7584;60.468;25.126;2023-03-14T12:04:57;11.10;;;2.50;;
14975;SDS011;7584;60.468;25.126;2023-03-14T12:07:34;11.00;;;3.40;;
14975;SDS011;7584;60.468;25.126;2023-03-14T12:10:03;10.60;;;2.87;;
14975;SDS011;7584;60.468;25.126;2023-03-14T12:12:28;11.93;;;3.40;;
14975;SDS011;7584;60.468;25.126;2023-03-14T12:14:59;13.03;;;3.77;;
14975;SDS011;7584;60.468;25.126;2023-03-14T12:17:26;14.97;;;3.17;;
14975;SDS011;7584;60.468;25.126;2023-03-14T12:22:29;14.73;;;3.57;;
14975;SDS011;7584;60.468;25.126;2023-03-14T12:24:57;23.77;;;3.63;;
14975;SDS011;7584;60.468;25.126;2023-03-14T12:30:23;18.37;;;3.97;;
14975;SDS011;7584;60.468;25.126;2023-03-14T12:35:44;20.37;;;3.67;;
14975;SDS011;7584;60.468;25.126;2023-03-14T12:38:13;17.27;;;4.03;;
14975;SDS011;7584;60.468;25.126;2023-03-14T12:40:40;12.43;;;2.40;;
14975;SDS011;7584;60.468;25.126;2023-03-14T12:43:24;21.70;;;4.20;;
14975;SDS011;7584;60.468;25.126;2023-03-14T12:46:14;16.23;;;3.60;;
14975;SDS011;7584;60.468;25.126;2023-03-14T12:48:41;11.80;;;3.07;;
14975;SDS011;7584;60.468;25.126;2023-03-14T12:51:13;15.57;;;3.77;;
14975;SDS011;7584;60.468;25.126;2023-03-14T13:01:23;13.27;;;3.67;;
14975;SDS011;7584;60.468;25.126;2023-03-14T13:03:52;10.67;;;2.80;;
14975;SDS011;7584;60.468;25.126;2023-03-14T13:11:48;11.17;;;3.00;;
14975;SDS011;7584;60.468;25.126;2023-03-14T13:14:13;14.60;;;3.17;;
14975;SDS011;7584;60.468;25.126;2023-03-14T13:16:38;18.77;;;3.90;;
14975;SDS011;7584;60.468;25.126;2023-03-14T13:19:09;12.37;;;3.40;;
14975;SDS011;7584;60.468;25.126;2023-03-14T13:21:36;8.60;;;2.43;;
14975;SDS011;7584;60.468;25.126;2023-03-14T13:26:43;10.83;;;2.77;;
14975;SDS011;7584;60.468;25.126;2023-03-14T13:29:15;13.67;;;2.63;;
14975;SDS011;7584;60.468;25.126;2023-03-14T13:31:44;10.43;;;2.67;;
14975;SDS011;7584;60.468;25.126;2023-03-14T13:34:10;12.40;;;2.63;;
14975;SDS011;7584;60.468;25.126;2023-03-14T13:36:36;12.03;;;3.07;;
14975;SDS011;7584;60.468;25.126;2023-03-14T13:39:02;14.33;;;2.97;;
14975;SDS011;7584;60.468;25.126;2023-03-14T13:41:29;12.70;;;3.10;;
14975;SDS011;7584;60.468;25.126;2023-03-14T13:43:59;11.70;;;2.93;;
14975;SDS011;7584;60.468;25.126;2023-03-14T13:46:25;12.23;;;3.03;;
14975;SDS011;7584;60.468;25.126;2023-03-14T13:48:57;17.03;;;3.57;;
14975;SDS011;7584;60.468;25.126;2023-03-14T13:51:23;13.83;;;3.70;;
14975;SDS011;7584;60.468;25.126;2023-03-14T13:53:53;19.17;;;4.13;;
14975;SDS011;7584;60.468;25.126;2023-03-14T13:56:20;12.03;;;3.90;;
14975;SDS011;7584;60.468;25.126;2023-03-14T13:58:46;11.50;;;3.20;;
14975;SDS011;7584;60.468;25.126;2023-03-14T14:03:53;15.03;;;3.43;;
14975;SDS011;7584;60.468;25.126;2023-03-14T14:06:22;17.23;;;3.43;;
14975;SDS011;7584;60.468;25.126;2023-03-14T14:08:48;14.30;;;2.93;;
14975;SDS011;7584;60.468;25.126;2023-03-14T14:11:18;16.10;;;3.37;;
14975;SDS011;7584;60.468;25.126;2023-03-14T14:13:45;10.60;;;3.80;;
14975;SDS011;7584;60.468;25.126;2023-03-14T14:16:10;12.10;;;3.47;;
14975;SDS011;7584;60.468;25.126;2023-03-14T14:18:36;11.53;;;3.47;;
14975;SDS011;7584;60.468;25.126;2023-03-14T14:21:02;13.90;;;4.17;;
14975;SDS011;7584;60.468;25.126;2023-03-14T14:23:28;16.13;;;3.27;;
14975;SDS011;7584;60.468;25.126;2023-03-14T14:25:55;12.23;;;3.13;;
14975;SDS011;7584;60.468;25.126;2023-03-14T14:28:25;15.60;;;3.70;;
14975;SDS011;7584;60.468;25.126;2023-03-14T14:33:26;13.57;;;3.57;;
14975;SDS011;7584;60.468;25.126;2023-03-14T14:35:55;17.97;;;3.97;;
14975;SDS011;7584;60.468;25.126;2023-03-14T14:38:21;16.70;;;3.87;;
14975;SDS011;7584;60.468;25.126;2023-03-14T14:40:50;11.47;;;3.23;;
14975;SDS011;7584;60.468;25.126;2023-03-14T14:43:18;12.00;;;3.73;;
14975;SDS011;7584;60.468;25.126;2023-03-14T14:45:44;14.87;;;4.10;;
14975;SDS011;7584;60.468;25.126;2023-03-14T14:48:10;13.67;;;4.03;;
14975;SDS011;7584;60.468;25.126;2023-03-14T14:50:38;20.30;;;5.40;;
14975;SDS011;7584;60.468;25.126;2023-03-14T14:53:18;22.47;;;4.87;;
14975;SDS011;7584;60.468;25.126;2023-03-14T14:55:45;19.17;;;4.20;;
14975;SDS011;7584;60.468;25.126;2023-03-14T14:58:22;14.40;;;4.17;;
14975;SDS011;7584;60.468;25.126;2023-03-14T15:03:22;13.50;;;3.40;;
14975;SDS011;7584;60.468;25.126;2023-03-14T15:05:50;8.40;;;2.67;;
14975;SDS011;7584;60.468;25.126;2023-03-14T15:08:16;8.40;;;3.10;;
14975;SDS011;7584;60.468;25.126;2023-03-14T15:10:41;12.13;;;3.63;;
14975;SDS011;7584;60.468;25.126;2023-03-14T15:13:06;11.67;;;3.47;;
14975;SDS011;7584;60.468;25.126;2023-03-14T15:15:32;11.50;;;3.27;;
14975;SDS011;7584;60.468;25.126;2023-03-14T15:17:57;9.70;;;2.67;;
14975;SDS011;7584;60.468;25.126;2023-03-14T15:20:22;12.63;;;3.07;;
14975;SDS011;7584;60.468;25.126;2023-03-14T15:22:51;11.10;;;2.77;;
14975;SDS011;7584;60.468;25.126;2023-03-14T15:25:16;8.80;;;2.80;;
14975;SDS011;7584;60.468;25.126;2023-03-14T15:27:42;11.03;;;2.70;;
14975;SDS011;7584;60.468;25.126;2023-03-14T15:30:13;9.77;;;3.33;;
14975;SDS011;7584;60.468;25.126;2023-03-14T15:32:39;9.43;;;2.83;;
14975;SDS011;7584;60.468;25.126;2023-03-14T15:35:05;7.97;;;3.37;;
14975;SDS011;7584;60.468;25.126;2023-03-14T15:37:30;9.57;;;3.40;;
14975;SDS011;7584;60.468;25.126;2023-03-14T15:39:56;9.37;;;4.13;;
14975;SDS011;7584;60.468;25.126;2023-03-14T15:42:23;11.87;;;2.97;;
14975;SDS011;7584;60.468;25.126;2023-03-14T15:44:48;6.67;;;2.80;;
14975;SDS011;7584;60.468;25.126;2023-03-14T15:47:13;8.77;;;2.77;;
14975;SDS011;7584;60.468;25.126;2023-03-14T15:49:39;9.77;;;3.27;;
14975;SDS011;7584;60.468;25.126;2023-03-14T15:52:04;8.43;;;2.50;;